createdAt,value
2023-01-26T00:02:20.407Z,98648.01
2023-01-26T00:04:48.561Z,98645.23
2023-01-26T00:07:16.699Z,98638.42
2023-01-26T00:09:44.842Z,98642.08
2023-01-26T00:12:13.132Z,98637.92
2023-01-26T00:14:59.305Z,98635.33
2023-01-26T00:17:27.481Z,98630.48
2023-01-26T00:19:58.240Z,98627.52
2023-01-26T00:22:27.675Z,98629.08
2023-01-26T00:24:56.107Z,98630.32
2023-01-26T00:27:24.274Z,98630.83
2023-01-26T00:29:52.489Z,98627.34
2023-01-26T00:32:20.651Z,98621.94
2023-01-26T00:34:49.444Z,98622.42
2023-01-26T00:37:17.634Z,98622.95
2023-01-26T00:39:45.807Z,98622.84
2023-01-26T00:42:14.190Z,98623.16
2023-01-26T00:44:43.306Z,98617.63
2023-01-26T00:47:13.763Z,98614.50
2023-01-26T00:49:41.968Z,98613.77
2023-01-26T00:52:11.697Z,98611.27
2023-01-26T00:54:40.002Z,98609.52
2023-01-26T00:57:08.176Z,98610.05
2023-01-26T00:59:36.961Z,98605.67
2023-01-26T01:05:01.706Z,98600.04
2023-01-26T01:07:29.797Z,98597.15
2023-01-26T01:09:57.950Z,98594.52
2023-01-26T01:12:27.728Z,98594.33
2023-01-26T01:14:56.130Z,98591.21
2023-01-26T01:17:25.368Z,98591.08
2023-01-26T01:19:53.517Z,98589.70
2023-01-26T01:22:22.937Z,98588.84
2023-01-26T01:24:51.297Z,98588.89
2023-01-26T01:27:19.420Z,98586.44
2023-01-26T01:29:50.553Z,98584.19
2023-01-26T01:32:19.944Z,98586.48
2023-01-26T01:34:49.554Z,98582.67
2023-01-26T01:37:18.086Z,98579.93
2023-01-26T01:39:46.221Z,98573.34
2023-01-26T01:42:14.364Z,98570.52
2023-01-26T01:44:43.681Z,98562.35
2023-01-26T01:47:21.311Z,98560.14
2023-01-26T01:49:52.765Z,98557.42
2023-01-26T01:52:30.123Z,98558.67
2023-01-26T01:55:10.251Z,98550.03
2023-01-26T01:57:47.106Z,98545.52
2023-01-26T02:00:19.959Z,98540.84
2023-01-26T02:03:16.784Z,98544.54
2023-01-26T02:05:57.076Z,98543.18
2023-01-26T02:08:36.894Z,98537.13
2023-01-26T02:11:14.984Z,98533.30
2023-01-26T02:13:46.585Z,98529.30
2023-01-26T02:16:15.990Z,98524.42
2023-01-26T02:18:46.082Z,98522.67
2023-01-26T02:21:20.614Z,98515.01
2023-01-26T02:23:55.328Z,98511.37
2023-01-26T02:26:30.111Z,98505.29
2023-01-26T02:28:59.888Z,98503.56
2023-01-26T02:31:29.003Z,98499.95
2023-01-26T02:33:57.755Z,98500.11
2023-01-26T02:36:30.159Z,98495.11
2023-01-26T02:40:01.722Z,98498.22
2023-01-26T02:42:38.925Z,98493.56
2023-01-26T02:45:09.719Z,98492.34
2023-01-26T02:47:37.877Z,98492.51
2023-01-26T02:50:10.788Z,98489.55
2023-01-26T02:52:39.975Z,98487.45
2023-01-26T02:55:25.053Z,98484.52
2023-01-26T02:58:00.828Z,98483.81
2023-01-26T03:00:37.317Z,98478.08
2023-01-26T03:03:14.772Z,98479.30
2023-01-26T03:05:44.188Z,98477.02
2023-01-26T03:08:12.496Z,98473.20
2023-01-26T03:10:41.253Z,98473.38
2023-01-26T03:13:09.460Z,98468.35
2023-01-26T03:15:43.525Z,98470.84
2023-01-26T03:18:34.467Z,98469.27
2023-01-26T03:21:25.461Z,98462.68
2023-01-26T03:24:12.071Z,98455.54
2023-01-26T03:26:59.719Z,98453.60
2023-01-26T03:29:30.601Z,98450.79
2023-01-26T03:32:00.677Z,98451.46
2023-01-26T03:34:29.675Z,98449.38
2023-01-26T03:36:58.566Z,98444.16
2023-01-26T03:39:46.226Z,98449.94
2023-01-26T03:42:32.906Z,98444.02
2023-01-26T03:45:19.620Z,98443.52
2023-01-26T03:48:07.999Z,98441.73
2023-01-26T03:50:55.114Z,98439.44
2023-01-26T03:53:43.061Z,98432.79
2023-01-26T03:56:19.267Z,98428.06
2023-01-26T03:58:52.310Z,98432.04
2023-01-26T04:01:28.164Z,98430.63
2023-01-26T04:04:17.596Z,98429.57
2023-01-26T04:07:07.941Z,98432.17
2023-01-26T04:09:39.648Z,98428.67
2023-01-26T04:12:10.353Z,98427.80
2023-01-26T04:15:04.368Z,98423.46
2023-01-26T04:17:51.760Z,98421.41
2023-01-26T04:20:38.733Z,98413.45
2023-01-26T04:23:06.859Z,98414.69
2023-01-26T04:25:35.785Z,98418.70
2023-01-26T04:28:04.089Z,98415.41
2023-01-26T04:30:32.425Z,98415.74
2023-01-26T04:33:00.591Z,98415.77
2023-01-26T04:35:28.974Z,98414.22
2023-01-26T04:37:57.647Z,98413.69
2023-01-26T04:40:25.849Z,98411.77
2023-01-26T04:42:54.988Z,98408.65
2023-01-26T04:45:23.205Z,98411.27
2023-01-26T04:47:51.457Z,98409.38
2023-01-26T04:50:19.854Z,98401.48
2023-01-26T04:52:48.863Z,98404.46
2023-01-26T04:55:17.562Z,98403.48
2023-01-26T04:57:45.761Z,98408.55
2023-01-26T05:00:14.503Z,98410.66
2023-01-26T05:02:43.159Z,98411.84
2023-01-26T05:05:11.812Z,98409.90
2023-01-26T05:07:40.509Z,98415.98
2023-01-26T05:10:09.901Z,98413.23
2023-01-26T05:12:56.968Z,98412.92
2023-01-26T05:15:42.305Z,98411.36
2023-01-26T05:18:26.866Z,98408.59
2023-01-26T05:20:58.686Z,98408.09
2023-01-26T05:23:28.461Z,98410.30
2023-01-26T05:26:15.290Z,98407.52
2023-01-26T05:29:05.321Z,98406.82
2023-01-26T05:31:33.497Z,98409.45
2023-01-26T05:34:01.685Z,98405.95
2023-01-26T05:36:30.073Z,98403.88
2023-01-26T05:38:58.520Z,98404.95
2023-01-26T05:41:28.019Z,98403.94
2023-01-26T05:44:10.384Z,98403.63
2023-01-26T05:46:43.794Z,98399.97
2023-01-26T05:49:12.326Z,98400.23
2023-01-26T05:51:40.516Z,98398.69
2023-01-26T05:54:09.054Z,98396.30
2023-01-26T05:56:37.287Z,98397.85
2023-01-26T05:59:07.215Z,98397.17
2023-01-26T06:01:35.557Z,98396.91
2023-01-26T06:04:05.074Z,98397.48
2023-01-26T06:06:45.271Z,98398.05
2023-01-26T06:09:27.264Z,98396.24
2023-01-26T06:12:17.736Z,98396.29
2023-01-26T06:14:58.829Z,98395.34
2023-01-26T06:17:49.890Z,98393.66
2023-01-26T06:20:19.790Z,98397.38
2023-01-26T06:23:00.402Z,98393.98
2023-01-26T06:25:29.149Z,98391.56
2023-01-26T06:27:58.715Z,98392.64
2023-01-26T06:30:28.353Z,98387.81
2023-01-26T06:33:01.295Z,98383.22
2023-01-26T06:35:30.471Z,98383.06
2023-01-26T06:38:02.018Z,98386.00
2023-01-26T06:40:30.196Z,98384.47
2023-01-26T06:42:58.467Z,98386.10
2023-01-26T06:45:27.658Z,98387.77
2023-01-26T06:47:56.445Z,98386.80
2023-01-26T06:50:32.979Z,98387.17
2023-01-26T06:53:11.495Z,98389.70
2023-01-26T06:55:52.173Z,98388.48
2023-01-26T06:58:34.846Z,98391.21
2023-01-26T07:01:17.895Z,98386.73
2023-01-26T07:03:48.916Z,98392.54
2023-01-26T07:06:17.124Z,98392.77
2023-01-26T07:08:45.753Z,98394.67
2023-01-26T07:11:15.074Z,98391.36
2023-01-26T07:13:43.301Z,98396.89
2023-01-26T07:16:15.306Z,98397.52
2023-01-26T07:18:43.827Z,98391.67
2023-01-26T07:21:15.836Z,98389.43
2023-01-26T07:23:44.128Z,98387.48
2023-01-26T07:26:12.613Z,98388.88
2023-01-26T07:28:41.082Z,98376.73
2023-01-26T07:31:11.653Z,98377.66
2023-01-26T07:33:40.145Z,98378.80
2023-01-26T07:36:08.710Z,98376.55
2023-01-26T07:38:37.017Z,98379.42
2023-01-26T07:41:09.229Z,98373.63
2023-01-26T07:43:39.073Z,98375.15
2023-01-26T07:46:10.976Z,98373.95
2023-01-26T07:48:41.817Z,98373.67
2023-01-26T07:51:11.358Z,98372.34
2023-01-26T07:53:40.097Z,98372.17
2023-01-26T07:56:16.101Z,98377.67
2023-01-26T07:58:44.230Z,98376.29
2023-01-26T08:01:14.836Z,98378.89
2023-01-26T08:03:45.567Z,98378.29
2023-01-26T08:06:14.920Z,98374.72
2023-01-26T08:08:46.064Z,98376.11
2023-01-26T08:11:14.208Z,98371.88
2023-01-26T08:13:42.300Z,98368.38
2023-01-26T08:16:12.740Z,98364.69
2023-01-26T08:18:43.686Z,98365.67
2023-01-26T08:21:14.310Z,98362.93
2023-01-26T08:23:42.580Z,98364.78
2023-01-26T08:26:13.881Z,98363.95
2023-01-26T08:28:41.991Z,98366.08
2023-01-26T08:31:15.328Z,98366.85
2023-01-26T08:33:44.205Z,98369.02
2023-01-26T08:36:15.224Z,98370.34
2023-01-26T08:38:43.958Z,98365.35
2023-01-26T08:41:12.960Z,98371.23
2023-01-26T08:43:41.096Z,98375.43
2023-01-26T08:46:10.026Z,98371.61
2023-01-26T08:48:38.747Z,98373.67
2023-01-26T08:51:08.860Z,98375.60
2023-01-26T08:53:37.997Z,98374.08
2023-01-26T08:56:10.392Z,98371.66
2023-01-26T08:58:39.325Z,98368.52
2023-01-26T09:01:12.185Z,98364.17
2023-01-26T09:03:40.842Z,98362.66
2023-01-26T09:06:11.862Z,98354.64
2023-01-26T09:08:40.411Z,98352.64
2023-01-26T09:11:09.888Z,98349.09
2023-01-26T09:13:40.069Z,98346.39
2023-01-26T09:16:19.279Z,98339.67
2023-01-26T09:18:51.200Z,98340.36
2023-01-26T09:21:20.005Z,98336.64
2023-01-26T09:23:48.179Z,98333.11
2023-01-26T09:26:16.410Z,98333.89
2023-01-26T09:28:44.537Z,98335.08
2023-01-26T09:31:12.760Z,98335.73
2023-01-26T09:33:41.589Z,98330.16
2023-01-26T09:36:11.913Z,98328.59
2023-01-26T09:38:40.418Z,98329.02
2023-01-26T09:41:45.230Z,98326.34
2023-01-26T09:44:24.985Z,98312.96
2023-01-26T09:47:29.267Z,98308.27
2023-01-26T09:50:19.018Z,98307.75
2023-01-26T09:52:56.100Z,98308.17
2023-01-26T09:55:25.574Z,98303.95
2023-01-26T09:57:55.002Z,98301.70
2023-01-26T10:00:39.215Z,98301.90
2023-01-26T10:03:33.459Z,98299.94
2023-01-26T10:06:08.057Z,98292.21
2023-01-26T10:09:34.923Z,98289.79
2023-01-26T10:12:11.652Z,98284.75
2023-01-26T10:15:23.339Z,98278.90
2023-01-26T10:17:55.101Z,98279.23
2023-01-26T10:20:29.409Z,98274.23
2023-01-26T10:23:37.214Z,98277.50
2023-01-26T10:26:17.194Z,98272.78
2023-01-26T10:28:49.731Z,98268.35
2023-01-26T10:31:23.016Z,98261.88
2023-01-26T10:34:10.736Z,98264.16
2023-01-26T10:36:42.502Z,98259.39
2023-01-26T10:39:15.647Z,98257.59
2023-01-26T10:42:01.316Z,98252.04
2023-01-26T10:44:36.645Z,98242.55
2023-01-26T10:47:13.567Z,98240.17
2023-01-26T10:49:42.089Z,98241.58
2023-01-26T10:52:22.593Z,98235.08
2023-01-26T10:55:21.102Z,98234.09
2023-01-26T10:57:49.599Z,98232.79
2023-01-26T11:00:34.303Z,98224.46
2023-01-26T11:03:18.965Z,98217.78
2023-01-26T11:06:06.175Z,98206.84
2023-01-26T11:08:38.189Z,98205.73
2023-01-26T11:11:10.492Z,98203.91
2023-01-26T11:13:38.655Z,98200.16
2023-01-26T11:16:26.492Z,98197.67
2023-01-26T11:19:09.355Z,98196.91
2023-01-26T11:22:17.228Z,98191.20
2023-01-26T11:25:17.619Z,98185.21
2023-01-26T11:28:16.227Z,98187.26
2023-01-26T11:31:12.964Z,98192.22
2023-01-26T11:34:01.477Z,98185.02
2023-01-26T11:36:38.175Z,98177.55
2023-01-26T11:39:34.813Z,98168.88
2023-01-26T11:42:38.553Z,98165.58
2023-01-26T11:45:33.441Z,98160.15
2023-01-26T11:48:27.587Z,98158.00
2023-01-26T11:51:11.331Z,98158.48
2023-01-26T11:53:57.965Z,98152.17
2023-01-26T11:56:34.203Z,98148.15
2023-01-26T11:59:12.552Z,98138.84
2023-01-26T12:01:49.083Z,98138.77
2023-01-26T12:04:22.617Z,98134.30
2023-01-26T12:07:00.400Z,98126.42
2023-01-26T12:10:01.656Z,98126.11
2023-01-26T12:12:45.967Z,98125.10
2023-01-26T12:15:33.037Z,98130.57
2023-01-26T12:18:38.245Z,98132.64
2023-01-26T12:21:15.972Z,98129.55
2023-01-26T12:23:58.998Z,98125.67
2023-01-26T12:26:32.590Z,98122.95
2023-01-26T12:29:20.104Z,98111.79
2023-01-26T12:32:01.255Z,98110.91
2023-01-26T12:34:33.733Z,98106.17
2023-01-26T12:37:28.761Z,98098.10
2023-01-26T12:40:25.414Z,98093.92
2023-01-26T12:43:44.743Z,98095.77
2023-01-26T12:46:14.591Z,98097.38
2023-01-26T12:48:55.682Z,98101.15
2023-01-26T12:51:39.718Z,98100.48
2023-01-26T12:54:55.533Z,98098.70
2023-01-26T12:57:35.054Z,98102.42
2023-01-26T13:00:17.679Z,98098.98
2023-01-26T13:02:51.208Z,98093.42
2023-01-26T13:05:31.380Z,98092.88
2023-01-26T13:08:28.622Z,98087.83
2023-01-26T13:11:06.847Z,98083.16
2023-01-26T13:13:57.652Z,98084.23
2023-01-26T13:16:28.863Z,98076.78
2023-01-26T13:18:59.176Z,98072.31
2023-01-26T13:21:39.858Z,98073.36
2023-01-26T13:24:16.873Z,98069.11
2023-01-26T13:26:54.353Z,98069.72
2023-01-26T13:29:25.570Z,98067.89
2023-01-26T13:32:02.825Z,98064.19
2023-01-26T13:34:43.725Z,98066.98
2023-01-26T13:37:44.355Z,98059.46
2023-01-26T13:40:38.292Z,98059.98
2023-01-26T13:43:26.237Z,98058.56
2023-01-26T13:46:23.368Z,98059.27
2023-01-26T13:48:56.938Z,98056.63
2023-01-26T13:51:32.900Z,98056.55
2023-01-26T13:54:07.892Z,98048.45
2023-01-26T13:56:59.180Z,98050.14
2023-01-26T13:59:27.467Z,98048.88
2023-01-26T14:01:57.621Z,98047.46
2023-01-26T14:04:32.199Z,98045.91
2023-01-26T14:07:06.789Z,98049.81
2023-01-26T14:10:01.148Z,98046.48
2023-01-26T14:12:46.486Z,98041.03
2023-01-26T14:15:29.525Z,98035.59
2023-01-26T14:18:05.111Z,98044.14
2023-01-26T14:20:39.650Z,98042.98
2023-01-26T14:23:10.181Z,98044.81
2023-01-26T14:25:40.610Z,98040.47
2023-01-26T14:28:16.519Z,98041.17
2023-01-26T14:30:52.299Z,98031.96
2023-01-26T14:33:22.842Z,98026.58
2023-01-26T14:36:04.132Z,98024.14
2023-01-26T14:38:44.848Z,98022.29
2023-01-26T14:41:29.876Z,98018.27
2023-01-26T14:44:05.952Z,98013.98
2023-01-26T14:47:03.295Z,98009.23
2023-01-26T14:50:10.968Z,97996.14
2023-01-26T14:52:44.231Z,97996.20
2023-01-26T14:55:36.186Z,97992.71
2023-01-26T14:58:15.859Z,97994.27
2023-01-26T15:00:49.607Z,97991.78
2023-01-26T15:03:29.124Z,97989.23
2023-01-26T15:06:09.881Z,97988.84
2023-01-26T15:08:39.785Z,97976.59
2023-01-26T15:11:28.993Z,97979.03
2023-01-26T15:13:57.086Z,97971.92
2023-01-26T15:16:26.635Z,97971.05
2023-01-26T15:19:07.960Z,97973.84
2023-01-26T15:21:40.942Z,97976.45
2023-01-26T15:24:15.041Z,97979.79
2023-01-26T15:26:44.112Z,97984.71
2023-01-26T15:29:32.989Z,97979.94
2023-01-26T15:32:02.782Z,97977.39
2023-01-26T15:34:31.405Z,97980.32
2023-01-26T15:37:01.239Z,97979.54
2023-01-26T15:39:30.249Z,97981.34
2023-01-26T15:42:15.901Z,97982.10
2023-01-26T15:44:44.020Z,97983.55
2023-01-26T15:47:13.523Z,97977.30
2023-01-26T15:49:42.754Z,97983.98
2023-01-26T15:52:16.592Z,97980.96
2023-01-26T15:54:45.219Z,97971.73
2023-01-26T15:57:14.156Z,97974.43
2023-01-26T15:59:42.354Z,97976.06
2023-01-26T16:02:20.644Z,97978.60
2023-01-26T16:04:49.072Z,97978.81
2023-01-26T16:07:18.877Z,97977.27
2023-01-26T16:09:49.097Z,97977.19
2023-01-26T16:12:30.870Z,97973.75
2023-01-26T16:15:00.915Z,97969.65
2023-01-26T16:17:29.338Z,97971.61
2023-01-26T16:19:57.530Z,97971.75
2023-01-26T16:22:25.757Z,97969.21
2023-01-26T16:24:53.922Z,97966.91
2023-01-26T16:27:22.683Z,97965.05
2023-01-26T16:29:50.817Z,97962.82
2023-01-26T16:32:30.604Z,97958.12
2023-01-26T16:34:58.853Z,97959.56
2023-01-26T16:37:27.052Z,97959.27
2023-01-26T16:39:55.224Z,97962.84
2023-01-26T16:42:23.381Z,97960.77
2023-01-26T16:44:51.548Z,97964.94
2023-01-26T16:47:19.775Z,97971.14
2023-01-26T16:49:47.939Z,97969.21
2023-01-26T16:52:16.113Z,97967.35
2023-01-26T16:54:45.683Z,97963.20
2023-01-26T16:57:14.102Z,97963.52
2023-01-26T16:59:42.489Z,97959.87
2023-01-26T17:02:26.347Z,97958.32
2023-01-26T17:04:54.577Z,97957.77
2023-01-26T17:07:22.744Z,97951.52
2023-01-26T17:09:50.960Z,97948.85
2023-01-26T17:12:19.221Z,97948.49
2023-01-26T17:14:47.396Z,97944.46
2023-01-26T17:17:15.527Z,97944.50
2023-01-26T17:19:43.717Z,97947.50
2023-01-26T17:22:11.835Z,97945.36
2023-01-26T17:24:40.570Z,97941.45
2023-01-26T17:27:12.649Z,97934.41
2023-01-26T17:29:42.266Z,97926.16
2023-01-26T17:32:10.899Z,97929.95
2023-01-26T17:34:39.011Z,97929.21
2023-01-26T17:37:07.214Z,97927.58
2023-01-26T17:39:35.394Z,97928.39
2023-01-26T17:42:03.694Z,97932.71
2023-01-26T17:44:31.862Z,97929.94
2023-01-26T17:47:00.007Z,97927.65
2023-01-26T17:49:28.247Z,97927.30
2023-01-26T17:51:56.357Z,97929.77
2023-01-26T17:54:24.597Z,97925.91
2023-01-26T17:56:52.718Z,97927.27
2023-01-26T17:59:21.431Z,97923.40
2023-01-26T18:01:49.548Z,97920.59
2023-01-26T18:04:18.790Z,97921.95
2023-01-26T18:06:46.939Z,97921.05
2023-01-26T18:09:15.163Z,97921.20
2023-01-26T18:11:43.329Z,97918.89
2023-01-26T18:14:12.051Z,97915.71
2023-01-26T18:16:40.278Z,97914.31
2023-01-26T18:19:08.771Z,97911.05
2023-01-26T18:21:37.068Z,97913.52
2023-01-26T18:24:06.275Z,97917.39
2023-01-26T18:26:37.670Z,97911.33
2023-01-26T18:29:07.211Z,97909.27
2023-01-26T18:31:40.973Z,97909.10
2023-01-26T18:34:11.298Z,97912.09
2023-01-26T18:36:39.528Z,97907.75
2023-01-26T18:39:12.919Z,97906.10
2023-01-26T18:41:43.250Z,97905.30
2023-01-26T18:44:11.779Z,97904.89
2023-01-26T18:46:39.997Z,97904.09
2023-01-26T18:49:10.156Z,97900.46
2023-01-26T18:51:38.283Z,97900.33
2023-01-26T18:54:07.401Z,97897.17
2023-01-26T18:56:36.256Z,97902.06
2023-01-26T18:59:04.476Z,97902.40
2023-01-26T19:01:32.745Z,97901.66
2023-01-26T19:04:02.892Z,97898.31
2023-01-26T19:06:32.606Z,97903.18
2023-01-26T19:09:05.571Z,97900.02
2023-01-26T19:11:38.824Z,97897.19
2023-01-26T19:14:08.320Z,97897.92
2023-01-26T19:16:37.041Z,97893.38
2023-01-26T19:19:05.412Z,97887.31
2023-01-26T19:21:34.203Z,97879.27
2023-01-26T19:24:06.159Z,97875.75
2023-01-26T19:26:34.557Z,97868.23
2023-01-26T19:29:03.163Z,97868.06
2023-01-26T19:31:32.131Z,97863.91
2023-01-26T19:34:02.877Z,97859.53
2023-01-26T19:36:34.176Z,97853.24
2023-01-26T19:39:04.388Z,97850.48
2023-01-26T19:41:33.343Z,97847.88
2023-01-26T19:44:01.768Z,97846.02
2023-01-26T19:46:29.900Z,97841.34
2023-01-26T19:48:58.005Z,97841.39
2023-01-26T19:51:27.631Z,97837.93
2023-01-26T19:53:58.619Z,97833.63
2023-01-26T19:56:35.052Z,97835.03
2023-01-26T19:59:07.774Z,97829.52
2023-01-26T20:01:36.926Z,97828.33
2023-01-26T20:04:11.269Z,97829.23
2023-01-26T20:06:39.469Z,97830.31
2023-01-26T20:09:08.569Z,97824.27
2023-01-26T20:11:36.816Z,97821.42
2023-01-26T20:14:10.163Z,97824.63
2023-01-26T20:16:38.612Z,97819.59
2023-01-26T20:19:06.859Z,97814.72
2023-01-26T20:21:35.620Z,97811.05
2023-01-26T20:24:06.061Z,97806.37
2023-01-26T20:26:35.370Z,97804.11
2023-01-26T20:29:04.452Z,97800.61
2023-01-26T20:31:33.081Z,97796.92
2023-01-26T20:34:02.256Z,97792.90
2023-01-26T20:36:33.186Z,97791.00
2023-01-26T20:39:02.158Z,97789.95
2023-01-26T20:41:32.433Z,97783.85
2023-01-26T20:44:04.384Z,97780.05
2023-01-26T20:46:39.109Z,97779.05
2023-01-26T20:49:11.736Z,97766.99
2023-01-26T20:51:42.676Z,97768.94
2023-01-26T20:54:13.981Z,97769.66
2023-01-26T20:56:45.662Z,97762.88
2023-01-26T20:59:13.877Z,97762.04
2023-01-26T21:01:42.060Z,97763.13
2023-01-26T21:04:10.161Z,97762.61
2023-01-26T21:06:39.724Z,97756.85
2023-01-26T21:09:08.090Z,97756.05
2023-01-26T21:11:37.491Z,97754.54
2023-01-26T21:14:05.809Z,97754.41
2023-01-26T21:16:35.699Z,97750.95
2023-01-26T21:19:03.953Z,97758.57
2023-01-26T21:21:32.441Z,97764.94
2023-01-26T21:24:00.640Z,97755.77
2023-01-26T21:26:28.924Z,97753.89
2023-01-26T21:28:59.835Z,97750.26
2023-01-26T21:31:32.516Z,97753.23
2023-01-26T21:34:01.376Z,97755.55
2023-01-26T21:36:31.816Z,97748.62
2023-01-26T21:39:01.077Z,97749.70
2023-01-26T21:41:51.869Z,97751.67
2023-01-26T21:44:26.586Z,97746.20
2023-01-26T21:46:59.264Z,97750.88
2023-01-26T21:49:28.664Z,97749.28
2023-01-26T21:52:15.722Z,97750.14
2023-01-26T21:54:43.835Z,97754.31
2023-01-26T21:57:31.013Z,97749.80
2023-01-26T21:59:59.125Z,97746.55
2023-01-26T22:02:27.282Z,97743.32
2023-01-26T22:04:55.404Z,97741.79
2023-01-26T22:07:23.798Z,97740.95
2023-01-26T22:09:51.869Z,97731.23
2023-01-26T22:12:20.062Z,97726.38
2023-01-26T22:14:48.207Z,97715.64
2023-01-26T22:17:16.626Z,97710.39
2023-01-26T22:19:44.788Z,97714.02
2023-01-26T22:22:12.933Z,97721.35
2023-01-26T22:24:41.142Z,97721.50
2023-01-26T22:27:09.307Z,97721.27
2023-01-26T22:29:37.676Z,97715.65
2023-01-26T22:32:05.874Z,97716.38
2023-01-26T22:34:34.179Z,97719.88
2023-01-26T22:37:02.820Z,97723.50
2023-01-26T22:39:30.985Z,97721.70
2023-01-26T22:41:59.478Z,97710.77
2023-01-26T22:44:27.585Z,97706.64
2023-01-26T22:46:55.833Z,97701.71
2023-01-26T22:49:24.016Z,97705.16
2023-01-26T22:51:52.130Z,97710.04
2023-01-26T22:54:20.393Z,97701.48
2023-01-26T22:56:48.521Z,97703.94
2023-01-26T22:59:16.682Z,97704.64
2023-01-26T23:01:45.063Z,97701.33
2023-01-26T23:04:13.217Z,97695.98
2023-01-26T23:06:42.207Z,97693.62
2023-01-26T23:09:10.353Z,97692.48
2023-01-26T23:11:38.596Z,97688.01
2023-01-26T23:14:06.897Z,97680.71
2023-01-26T23:16:35.108Z,97688.08
2023-01-26T23:19:03.303Z,97690.37
2023-01-26T23:21:31.541Z,97689.20
2023-01-26T23:23:59.719Z,97686.03
2023-01-26T23:26:27.905Z,97687.99
2023-01-26T23:28:56.108Z,97687.50
2023-01-26T23:31:24.395Z,97682.41
2023-01-26T23:33:52.592Z,97676.46
2023-01-26T23:36:20.974Z,97675.05
2023-01-26T23:38:50.060Z,97672.40
2023-01-26T23:41:19.088Z,97672.23
2023-01-26T23:43:47.216Z,97667.66
2023-01-26T23:46:15.450Z,97673.23
2023-01-26T23:48:43.652Z,97673.90
2023-01-26T23:51:12.625Z,97672.84
2023-01-26T23:53:41.298Z,97669.30
2023-01-26T23:56:14.411Z,97657.24
2023-01-26T23:58:42.995Z,97654.42
